createdAt,value
2023-02-23T00:02:17.281Z,9.37
2023-02-23T00:08:28.855Z,9.38
2023-02-23T00:10:58.847Z,9.37
2023-02-23T00:13:28.723Z,9.38
2023-02-23T00:15:58.447Z,9.41
2023-02-23T00:18:30.259Z,9.40
2023-02-23T00:21:00.786Z,9.42
2023-02-23T00:23:33.267Z,9.42
2023-02-23T00:26:05.202Z,9.40
2023-02-23T00:28:35.268Z,9.42
2023-02-23T00:31:05.514Z,9.42
2023-02-23T00:33:35.219Z,9.40
2023-02-23T00:36:09.543Z,9.41
2023-02-23T00:38:42.813Z,9.37
2023-02-23T00:41:17.176Z,9.37
2023-02-23T00:43:47.787Z,9.37
2023-02-23T00:46:19.324Z,9.36
2023-02-23T00:48:49.157Z,9.36
2023-02-23T00:51:20.471Z,9.35
2023-02-23T00:53:57.207Z,9.34
2023-02-23T00:56:27.292Z,9.34
2023-02-23T00:58:57.835Z,9.32
2023-02-23T01:01:28.208Z,9.31
2023-02-23T01:03:57.928Z,9.31
2023-02-23T01:06:27.634Z,9.30
2023-02-23T01:08:59.910Z,9.29
2023-02-23T01:11:31.322Z,9.30
2023-02-23T01:14:03.153Z,9.29
2023-02-23T01:16:35.200Z,9.31
2023-02-23T01:19:07.696Z,9.30
2023-02-23T01:21:39.429Z,9.30
2023-02-23T01:24:12.699Z,9.31
2023-02-23T01:26:44.287Z,9.34
2023-02-23T01:29:16.416Z,9.37
2023-02-23T01:31:48.764Z,9.40
2023-02-23T01:34:18.702Z,9.41
2023-02-23T01:36:48.770Z,9.41
2023-02-23T01:39:23.302Z,9.43
2023-02-23T01:41:54.599Z,9.44
2023-02-23T01:44:54.267Z,9.47
2023-02-23T01:47:24.030Z,9.46
2023-02-23T01:49:54.108Z,9.48
2023-02-23T01:52:23.911Z,9.50
2023-02-23T01:54:58.019Z,9.50
2023-02-23T01:57:28.264Z,9.50
2023-02-23T01:59:58.492Z,9.49
2023-02-23T02:02:34.021Z,9.50
2023-02-23T02:05:13.210Z,9.50
2023-02-23T02:07:48.629Z,9.48
2023-02-23T02:10:33.656Z,9.46
2023-02-23T02:13:06.033Z,9.45
2023-02-23T02:15:40.583Z,9.43
2023-02-23T02:18:18.894Z,9.41
2023-02-23T02:21:26.967Z,9.43
2023-02-23T02:24:22.638Z,9.43
2023-02-23T02:27:13.821Z,9.42
2023-02-23T02:30:13.976Z,9.42
2023-02-23T02:33:11.201Z,9.39
2023-02-23T02:36:17.981Z,9.40
2023-02-23T02:38:59.000Z,9.41
2023-02-23T02:41:41.702Z,9.42
2023-02-23T02:44:16.942Z,9.44
2023-02-23T02:46:51.838Z,9.45
2023-02-23T02:49:35.319Z,9.48
2023-02-23T02:52:14.653Z,9.50
2023-02-23T02:54:53.630Z,9.52
2023-02-23T02:57:28.052Z,9.52
2023-02-23T03:00:10.296Z,9.53
2023-02-23T03:02:55.418Z,9.54
2023-02-23T03:05:44.103Z,9.56
2023-02-23T03:08:36.418Z,9.57
2023-02-23T03:11:23.335Z,9.58
2023-02-23T03:14:18.095Z,9.59
2023-02-23T03:17:11.522Z,9.61
2023-02-23T03:20:02.189Z,9.62
2023-02-23T03:22:51.240Z,9.65
2023-02-23T03:25:40.090Z,9.64
2023-02-23T03:28:34.151Z,9.64
2023-02-23T03:31:23.456Z,9.62
2023-02-23T03:34:11.887Z,9.61
2023-02-23T03:37:02.174Z,9.61
2023-02-23T03:39:50.848Z,9.61
2023-02-23T03:42:37.608Z,9.61
2023-02-23T03:45:28.307Z,9.60
2023-02-23T03:48:13.294Z,9.60
2023-02-23T03:51:00.028Z,9.59
2023-02-23T03:53:49.179Z,9.58
2023-02-23T03:56:34.344Z,9.57
2023-02-23T03:59:19.561Z,9.58
2023-02-23T04:02:09.169Z,9.59
2023-02-23T04:04:52.277Z,9.59
2023-02-23T04:07:35.449Z,9.60
2023-02-23T04:10:18.717Z,9.61
2023-02-23T04:13:07.576Z,9.63
2023-02-23T04:15:38.280Z,9.63
2023-02-23T04:18:14.938Z,9.64
2023-02-23T04:20:44.750Z,9.65
2023-02-23T04:23:14.559Z,9.64
2023-02-23T04:25:44.392Z,9.64
2023-02-23T04:28:14.153Z,9.62
2023-02-23T04:30:43.979Z,9.62
2023-02-23T04:33:16.671Z,9.63
2023-02-23T04:35:46.579Z,9.62
2023-02-23T04:38:16.336Z,9.58
2023-02-23T04:40:46.158Z,9.57
2023-02-23T04:43:16.733Z,9.56
2023-02-23T04:45:50.079Z,9.54
2023-02-23T04:48:25.214Z,9.52
2023-02-23T04:50:55.622Z,9.50
2023-02-23T04:53:25.640Z,9.48
2023-02-23T04:55:55.403Z,9.46
2023-02-23T04:58:25.152Z,9.45
2023-02-23T05:00:54.928Z,9.44
2023-02-23T05:03:27.370Z,9.45
2023-02-23T05:05:57.139Z,9.42
2023-02-23T05:08:26.986Z,9.42
2023-02-23T05:10:56.828Z,9.40
2023-02-23T05:13:26.647Z,9.39
2023-02-23T05:16:00.465Z,9.37
2023-02-23T05:18:32.881Z,9.34
2023-02-23T05:21:06.176Z,9.32
2023-02-23T05:23:36.439Z,9.30
2023-02-23T05:26:08.411Z,9.30
2023-02-23T05:28:40.086Z,9.27
2023-02-23T05:31:10.380Z,9.24
2023-02-23T05:33:43.432Z,9.22
2023-02-23T05:36:15.389Z,9.19
2023-02-23T05:38:45.882Z,9.18
2023-02-23T05:41:19.529Z,9.17
2023-02-23T05:43:51.284Z,9.17
2023-02-23T05:46:24.256Z,9.19
2023-02-23T05:49:00.901Z,9.20
2023-02-23T05:51:31.860Z,9.18
2023-02-23T05:54:01.959Z,9.19
2023-02-23T05:56:31.742Z,9.19
2023-02-23T05:59:02.597Z,9.21
2023-02-23T06:01:32.406Z,9.21
2023-02-23T06:04:06.204Z,9.22
2023-02-23T06:06:36.187Z,9.20
2023-02-23T06:09:06.462Z,9.18
2023-02-23T06:11:36.656Z,9.17
2023-02-23T06:14:06.479Z,9.14
2023-02-23T06:16:36.363Z,9.12
2023-02-23T06:19:09.423Z,9.12
2023-02-23T06:21:39.295Z,9.11
2023-02-23T06:24:09.850Z,9.15
2023-02-23T06:26:39.675Z,9.16
2023-02-23T06:29:09.460Z,9.18
2023-02-23T06:31:39.323Z,9.20
2023-02-23T06:34:12.717Z,9.21
2023-02-23T06:36:42.490Z,9.22
2023-02-23T06:39:15.355Z,9.23
2023-02-23T06:41:45.315Z,9.22
2023-02-23T06:44:15.403Z,9.23
2023-02-23T06:46:45.210Z,9.22
2023-02-23T06:49:17.689Z,9.22
2023-02-23T06:51:47.725Z,9.21
2023-02-23T06:54:17.790Z,9.22
2023-02-23T06:56:47.588Z,9.20
2023-02-23T06:59:17.346Z,9.22
2023-02-23T07:01:47.429Z,9.23
2023-02-23T07:04:20.103Z,9.22
2023-02-23T07:06:49.902Z,9.23
2023-02-23T07:09:22.570Z,9.24
2023-02-23T07:11:52.388Z,9.24
2023-02-23T07:14:26.824Z,9.25
2023-02-23T07:16:57.138Z,9.25
2023-02-23T07:19:29.538Z,9.25
2023-02-23T07:21:59.597Z,9.22
2023-02-23T07:24:30.084Z,9.22
2023-02-23T07:26:59.851Z,9.22
2023-02-23T07:29:30.459Z,9.23
2023-02-23T07:32:00.422Z,9.22
2023-02-23T07:34:32.919Z,9.25
2023-02-23T07:37:02.721Z,9.23
2023-02-23T07:39:32.631Z,9.24
2023-02-23T07:42:02.389Z,9.26
2023-02-23T07:44:32.138Z,9.27
2023-02-23T07:47:01.958Z,9.30
2023-02-23T07:49:34.420Z,9.32
2023-02-23T07:52:04.427Z,9.34
2023-02-23T07:54:34.943Z,9.35
2023-02-23T07:57:04.783Z,9.37
2023-02-23T07:59:35.014Z,9.39
2023-02-23T08:02:04.822Z,9.38
2023-02-23T08:04:37.281Z,9.37
2023-02-23T08:07:07.154Z,9.36
2023-02-23T08:09:36.908Z,9.35
2023-02-23T08:12:07.102Z,9.34
2023-02-23T08:14:36.966Z,9.28
2023-02-23T08:17:07.041Z,9.25
2023-02-23T08:19:40.233Z,9.25
2023-02-23T08:22:10.357Z,9.26
2023-02-23T08:24:40.582Z,9.26
2023-02-23T08:27:10.381Z,9.21
2023-02-23T08:29:40.170Z,9.20
2023-02-23T08:32:10.114Z,9.21
2023-02-23T08:34:45.131Z,9.25
2023-02-23T08:39:53.886Z,9.25
2023-02-23T08:42:23.855Z,9.24
2023-02-23T08:44:53.752Z,9.25
2023-02-23T08:47:24.406Z,9.28
2023-02-23T08:49:57.110Z,9.31
2023-02-23T08:52:26.939Z,9.34
2023-02-23T08:54:57.642Z,9.37
2023-02-23T08:57:27.413Z,9.40
2023-02-23T08:59:57.354Z,9.44
2023-02-23T09:02:27.776Z,9.48
2023-02-23T09:05:00.218Z,9.49
2023-02-23T09:07:30.084Z,9.51
2023-02-23T09:10:00.669Z,9.56
2023-02-23T09:12:30.459Z,9.57
2023-02-23T09:15:00.440Z,9.57
2023-02-23T09:17:31.896Z,9.59
2023-02-23T09:20:04.424Z,9.60
2023-02-23T09:22:36.856Z,9.61
2023-02-23T09:25:08.768Z,9.62
2023-02-23T09:27:38.549Z,9.64
2023-02-23T09:30:12.336Z,9.63
2023-02-23T09:32:43.279Z,9.62
2023-02-23T09:35:18.051Z,9.62
2023-02-23T09:37:49.182Z,9.57
2023-02-23T09:40:25.504Z,9.54
2023-02-23T09:43:03.868Z,9.51
2023-02-23T09:45:41.918Z,9.47
2023-02-23T09:48:23.725Z,9.44
2023-02-23T09:51:10.450Z,9.40
2023-02-23T09:53:44.542Z,9.42
2023-02-23T09:56:21.586Z,9.44
2023-02-23T09:58:55.334Z,9.43
2023-02-23T10:01:55.956Z,9.43
2023-02-23T10:04:34.132Z,9.45
2023-02-23T10:07:24.134Z,9.50
2023-02-23T10:10:07.000Z,9.48
2023-02-23T10:12:55.216Z,9.50
2023-02-23T10:15:44.424Z,9.49
2023-02-23T10:18:40.621Z,9.48
2023-02-23T10:21:20.192Z,9.48
2023-02-23T10:23:59.882Z,9.51
2023-02-23T10:26:32.430Z,9.49
2023-02-23T10:29:02.950Z,9.51
2023-02-23T10:31:44.405Z,9.54
2023-02-23T10:34:21.275Z,9.56
2023-02-23T10:36:59.140Z,9.58
2023-02-23T10:39:33.294Z,9.58
2023-02-23T10:42:12.489Z,9.54
2023-02-23T10:44:54.522Z,9.52
2023-02-23T10:47:28.623Z,9.51
2023-02-23T10:50:01.360Z,9.54
2023-02-23T10:52:42.901Z,9.53
2023-02-23T10:55:27.494Z,9.53
2023-02-23T10:58:17.071Z,9.49
2023-02-23T11:00:58.567Z,9.52
2023-02-23T11:03:35.565Z,9.57
2023-02-23T11:06:07.598Z,9.54
2023-02-23T11:08:41.482Z,9.51
2023-02-23T11:11:33.211Z,9.54
2023-02-23T11:14:20.040Z,9.54
2023-02-23T11:16:49.943Z,9.53
2023-02-23T11:19:27.904Z,9.52
2023-02-23T11:21:58.177Z,9.49
2023-02-23T11:24:31.377Z,9.46
2023-02-23T11:27:06.894Z,9.46
2023-02-23T11:29:41.882Z,9.46
2023-02-23T11:32:19.524Z,9.47
2023-02-23T11:34:51.522Z,9.48
2023-02-23T11:37:26.117Z,9.48
2023-02-23T11:40:04.073Z,9.46
2023-02-23T11:42:49.545Z,9.48
2023-02-23T11:45:22.366Z,9.52
2023-02-23T11:47:56.595Z,9.54
2023-02-23T11:50:47.152Z,9.55
2023-02-23T11:53:24.937Z,9.60
2023-02-23T11:58:50.146Z,9.59
2023-02-23T12:01:23.823Z,9.62
2023-02-23T12:03:56.579Z,9.64
2023-02-23T12:06:33.323Z,9.59
2023-02-23T12:12:09.388Z,9.39
2023-02-23T12:14:52.395Z,9.31
2023-02-23T12:17:28.725Z,9.14
2023-02-23T12:20:03.153Z,9.05
2023-02-23T12:22:39.568Z,8.97
2023-02-23T12:25:20.405Z,8.94
2023-02-23T12:27:59.046Z,8.86
2023-02-23T12:30:43.395Z,8.71
2023-02-23T12:33:18.066Z,8.63
2023-02-23T12:35:57.492Z,8.60
2023-02-23T12:38:36.123Z,8.48
2023-02-23T12:41:13.481Z,8.36
2023-02-23T12:43:51.746Z,8.26
2023-02-23T12:46:28.363Z,8.19
2023-02-23T12:49:07.042Z,8.20
2023-02-23T12:51:41.149Z,8.16
2023-02-23T12:54:13.529Z,8.10
2023-02-23T12:56:57.826Z,8.02
2023-02-23T12:59:53.434Z,7.90
2023-02-23T13:02:32.527Z,7.84
2023-02-23T13:05:22.721Z,7.78
2023-02-23T13:08:12.966Z,7.76
2023-02-23T13:10:54.254Z,7.76
2023-02-23T13:13:33.231Z,7.79
2023-02-23T13:16:08.858Z,7.75
2023-02-23T13:18:45.957Z,7.70
2023-02-23T13:21:22.927Z,7.67
2023-02-23T13:24:02.593Z,7.66
2023-02-23T13:26:39.707Z,7.63
2023-02-23T13:29:20.811Z,7.60
2023-02-23T13:31:51.077Z,7.64
2023-02-23T13:34:29.690Z,7.69
2023-02-23T13:37:01.768Z,7.68
2023-02-23T13:39:47.926Z,7.66
2023-02-23T13:42:29.249Z,7.62
2023-02-23T13:45:09.988Z,7.57
2023-02-23T13:47:49.159Z,7.57
2023-02-23T13:50:29.415Z,7.56
2023-02-23T13:53:05.222Z,7.56
2023-02-23T13:55:51.810Z,7.63
2023-02-23T13:58:28.892Z,7.63
2023-02-23T14:01:10.843Z,7.59
2023-02-23T14:03:47.694Z,7.58
2023-02-23T14:06:22.666Z,7.60
2023-02-23T14:08:59.250Z,7.59
2023-02-23T14:11:46.477Z,7.60
2023-02-23T14:14:46.809Z,7.58
2023-02-23T14:17:50.817Z,7.53
2023-02-23T14:20:39.057Z,7.51
2023-02-23T14:23:37.343Z,7.54
2023-02-23T14:26:41.109Z,7.50
2023-02-23T14:29:33.152Z,7.42
2023-02-23T14:32:06.580Z,7.37
2023-02-23T14:34:52.461Z,7.39
2023-02-23T14:37:32.104Z,7.40
2023-02-23T14:40:12.294Z,7.40
2023-02-23T14:42:43.628Z,7.40
2023-02-23T14:45:25.770Z,7.39
2023-02-23T14:48:00.139Z,7.40
2023-02-23T14:50:32.815Z,7.36
2023-02-23T14:53:05.522Z,7.37
2023-02-23T14:55:45.751Z,7.39
2023-02-23T14:58:38.482Z,7.41
2023-02-23T15:01:08.783Z,7.43
2023-02-23T15:03:38.673Z,7.45
2023-02-23T15:06:16.707Z,7.50
2023-02-23T15:08:49.522Z,7.54
2023-02-23T15:11:23.445Z,7.56
2023-02-23T15:13:55.281Z,7.58
2023-02-23T15:16:32.114Z,7.60
2023-02-23T15:19:09.895Z,7.64
2023-02-23T15:21:42.820Z,7.66
2023-02-23T15:24:16.740Z,7.65
2023-02-23T15:26:52.233Z,7.62
2023-02-23T15:29:37.292Z,7.56
2023-02-23T15:32:23.849Z,7.52
2023-02-23T15:34:55.727Z,7.46
2023-02-23T15:37:34.454Z,7.47
2023-02-23T15:40:09.655Z,7.46
2023-02-23T15:42:45.758Z,7.46
2023-02-23T15:45:23.075Z,7.42
2023-02-23T15:47:56.984Z,7.43
2023-02-23T15:50:37.056Z,7.41
2023-02-23T15:53:13.903Z,7.36
2023-02-23T15:55:46.627Z,7.37
2023-02-23T15:58:24.847Z,7.40
2023-02-23T16:00:59.645Z,7.38
2023-02-23T16:03:33.808Z,7.39
2023-02-23T16:06:09.069Z,7.36
2023-02-23T16:08:38.918Z,7.35
2023-02-23T16:11:14.169Z,7.31
2023-02-23T16:13:50.728Z,7.24
2023-02-23T16:16:25.756Z,7.23
2023-02-23T16:19:01.572Z,7.22
2023-02-23T16:21:35.396Z,7.18
2023-02-23T16:24:12.059Z,7.15
2023-02-23T16:26:50.551Z,7.09
2023-02-23T16:29:41.624Z,7.08
2023-02-23T16:32:20.088Z,7.05
2023-02-23T16:34:52.804Z,7.03
2023-02-23T16:37:28.000Z,6.99
2023-02-23T16:39:58.848Z,6.98
2023-02-23T16:42:31.954Z,7.02
2023-02-23T16:45:05.321Z,7.00
2023-02-23T16:47:43.793Z,6.98
2023-02-23T16:50:20.270Z,6.94
2023-02-23T16:52:54.617Z,6.93
2023-02-23T16:55:28.130Z,6.94
2023-02-23T16:58:00.469Z,6.96
2023-02-23T17:00:35.723Z,6.97
2023-02-23T17:03:05.740Z,6.98
2023-02-23T17:05:36.329Z,6.99
2023-02-23T17:08:06.669Z,6.98
2023-02-23T17:10:38.174Z,6.97
2023-02-23T17:13:10.464Z,6.97
2023-02-23T17:15:51.977Z,6.96
2023-02-23T17:20:56.433Z,6.99
2023-02-23T17:23:28.643Z,6.98
2023-02-23T17:25:59.225Z,6.98
2023-02-23T17:28:29.294Z,6.96
2023-02-23T17:31:04.639Z,6.94
2023-02-23T17:33:36.586Z,6.92
2023-02-23T17:36:09.254Z,6.89
2023-02-23T17:38:44.301Z,6.82
2023-02-23T17:41:17.838Z,6.79
2023-02-23T17:43:51.244Z,6.80
2023-02-23T17:46:32.795Z,6.79
2023-02-23T17:49:04.691Z,6.80
2023-02-23T17:51:37.078Z,6.78
2023-02-23T17:54:11.198Z,6.77
2023-02-23T17:56:41.210Z,6.78
2023-02-23T17:59:11.314Z,6.81
2023-02-23T18:01:47.350Z,6.83
2023-02-23T18:04:20.364Z,6.82
2023-02-23T18:06:52.013Z,6.83
2023-02-23T18:09:38.346Z,6.86
2023-02-23T18:12:11.394Z,6.86
2023-02-23T18:14:45.747Z,6.89
2023-02-23T18:17:24.525Z,6.91
2023-02-23T18:19:58.682Z,6.90
2023-02-23T18:22:32.141Z,6.90
2023-02-23T18:25:04.872Z,6.90
2023-02-23T18:27:34.780Z,6.88
2023-02-23T18:30:15.435Z,6.87
2023-02-23T18:32:48.405Z,6.83
2023-02-23T18:35:19.206Z,6.85
2023-02-23T18:37:58.149Z,6.84
2023-02-23T18:40:38.551Z,6.85
2023-02-23T18:43:20.020Z,6.89
2023-02-23T18:45:59.148Z,6.89
2023-02-23T18:48:31.681Z,6.93
2023-02-23T18:51:01.726Z,6.94
2023-02-23T18:53:31.895Z,6.97
2023-02-23T18:56:07.086Z,6.97
2023-02-23T18:58:37.742Z,6.96
2023-02-23T19:01:18.231Z,6.96
2023-02-23T19:03:52.392Z,6.96
2023-02-23T19:06:24.060Z,6.96
2023-02-23T19:08:56.561Z,6.98
2023-02-23T19:11:28.366Z,6.97
2023-02-23T19:13:59.836Z,6.98
2023-02-23T19:16:31.459Z,6.98
2023-02-23T19:19:04.512Z,6.97
2023-02-23T19:21:34.546Z,6.95
2023-02-23T19:24:04.937Z,6.91
2023-02-23T19:26:35.982Z,6.87
2023-02-23T19:29:06.104Z,6.83
2023-02-23T19:31:37.513Z,6.82
2023-02-23T19:34:09.988Z,6.82
2023-02-23T19:36:40.076Z,6.82
2023-02-23T19:39:11.175Z,6.80
2023-02-23T19:41:42.550Z,6.81
2023-02-23T19:44:13.138Z,6.83
2023-02-23T19:46:43.270Z,6.84
2023-02-23T19:49:15.845Z,6.84
2023-02-23T19:51:45.730Z,6.86
2023-02-23T19:54:15.531Z,6.86
2023-02-23T19:56:45.448Z,6.87
2023-02-23T19:59:15.496Z,6.88
2023-02-23T20:01:46.450Z,6.86
2023-02-23T20:04:18.890Z,6.83
2023-02-23T20:06:48.698Z,6.83
2023-02-23T20:09:18.605Z,6.77
2023-02-23T20:11:48.614Z,6.72
2023-02-23T20:14:22.202Z,6.73
2023-02-23T20:16:52.023Z,6.74
2023-02-23T20:19:24.530Z,6.76
2023-02-23T20:21:54.379Z,6.80
2023-02-23T20:24:24.367Z,6.77
2023-02-23T20:26:56.394Z,6.80
2023-02-23T20:29:28.215Z,6.71
2023-02-23T20:32:00.070Z,6.68
2023-02-23T20:34:32.989Z,6.70
2023-02-23T20:37:04.391Z,6.71
2023-02-23T20:39:34.170Z,6.74
2023-02-23T20:42:04.038Z,6.77
2023-02-23T20:44:33.837Z,6.82
2023-02-23T20:47:08.249Z,6.85
2023-02-23T20:49:41.430Z,6.90
2023-02-23T20:52:12.262Z,6.92
2023-02-23T20:54:42.278Z,6.94
2023-02-23T20:57:12.162Z,6.96
2023-02-23T20:59:43.353Z,6.93
2023-02-23T21:02:15.414Z,6.97
2023-02-23T21:04:47.924Z,6.99
2023-02-23T21:07:17.696Z,6.97
2023-02-23T21:09:47.594Z,6.97
2023-02-23T21:12:17.547Z,6.98
2023-02-23T21:14:47.319Z,6.99
2023-02-23T21:17:17.160Z,6.99
2023-02-23T21:19:49.528Z,6.98
2023-02-23T21:22:19.338Z,6.97
2023-02-23T21:24:49.099Z,6.98
2023-02-23T21:27:18.864Z,6.93
2023-02-23T21:29:48.765Z,6.90
2023-02-23T21:32:18.712Z,6.87
2023-02-23T21:34:51.507Z,6.85
2023-02-23T21:37:21.261Z,6.87
2023-02-23T21:39:52.256Z,6.83
2023-02-23T21:42:24.122Z,6.82
2023-02-23T21:44:53.904Z,6.82
2023-02-23T21:47:23.946Z,6.79
2023-02-23T21:49:56.466Z,6.77
2023-02-23T21:52:26.253Z,6.73
2023-02-23T21:54:56.248Z,6.69
2023-02-23T21:57:28.350Z,6.66
2023-02-23T21:59:58.216Z,6.68
2023-02-23T22:02:30.711Z,6.68
2023-02-23T22:05:03.260Z,6.70
2023-02-23T22:07:34.000Z,6.72
2023-02-23T22:10:04.861Z,6.76
2023-02-23T22:12:35.404Z,6.78
2023-02-23T22:15:08.452Z,6.81
2023-02-23T22:17:38.761Z,6.82
2023-02-23T22:20:14.718Z,6.86
2023-02-23T22:22:44.494Z,6.87
2023-02-23T22:25:14.246Z,6.90
2023-02-23T22:27:44.283Z,6.91
2023-02-23T22:30:16.519Z,6.93
2023-02-23T22:32:47.878Z,6.97
2023-02-23T22:35:20.540Z,6.98
2023-02-23T22:37:50.317Z,6.98
2023-02-23T22:40:20.871Z,6.98
2023-02-23T22:42:54.824Z,6.91
2023-02-23T22:45:24.626Z,6.83
2023-02-23T22:47:55.697Z,6.77
2023-02-23T22:50:28.129Z,6.74
2023-02-23T22:52:58.348Z,6.70
2023-02-23T22:55:29.463Z,6.65
2023-02-23T22:58:00.863Z,6.64
2023-02-23T23:00:31.038Z,6.61
2023-02-23T23:03:02.152Z,6.61
2023-02-23T23:05:35.729Z,6.64
2023-02-23T23:08:06.472Z,6.65
2023-02-23T23:10:36.255Z,6.68
2023-02-23T23:13:08.666Z,6.70
2023-02-23T23:15:39.115Z,6.71
2023-02-23T23:18:14.117Z,6.73
2023-02-23T23:20:46.643Z,6.71
2023-02-23T23:23:17.301Z,6.70
2023-02-23T23:25:49.712Z,6.67
2023-02-23T23:28:24.332Z,6.64
2023-02-23T23:30:56.281Z,6.64
2023-02-23T23:33:27.119Z,6.62
2023-02-23T23:35:59.513Z,6.57
2023-02-23T23:38:29.625Z,6.50
2023-02-23T23:41:10.108Z,6.44
2023-02-23T23:43:40.763Z,6.40
2023-02-23T23:46:10.822Z,6.35
2023-02-23T23:48:42.817Z,6.32
2023-02-23T23:51:15.961Z,6.29
2023-02-23T23:53:46.016Z,6.27
2023-02-23T23:56:15.955Z,6.23
2023-02-23T23:58:46.497Z,6.21
